Time;durP1;ratioP1;P1;durP2;ratioP2;P2;SDS_P1;SDS_P2;PMS_P1;PMS_P2;Temp;Humidity;BMP_temperature;BMP_pressure;BME280_temperature;BME280_humidity;BME280_pressure;Samples;Min_cycle;Max_cycle;Signal;HPM_P1;HPM_P2
2021/06/02 00:01:59;;;;;;;14.63;9.08;;;;;;;14.93;61.26;100494.61;2142993;82;33314;-58
2021/06/02 00:05:03;;;;;;;13.22;9.48;;;;;;;14.95;61.13;100491.34;2163607;82;29309;-57
2021/06/02 00:08:08;;;;;;;13.45;9.45;;;;;;;14.98;61.28;100493.34;2171229;81;27618;-57
2021/06/02 00:11:10;;;;;;;18.17;9.23;;;;;;;14.97;61.10;100493.45;2172530;81;29022;-58
2021/06/02 00:14:12;;;;;;;14.70;9.80;;;;;;;14.96;61.12;100495.27;2166013;81;31712;-57
2021/06/02 00:17:16;;;;;;;11.85;8.55;;;;;;;14.96;61.14;100493.92;2156597;81;33293;-57
2021/06/02 00:20:18;;;;;;;12.65;9.10;;;;;;;14.94;61.18;100493.64;2172369;81;30480;-57
2021/06/02 00:23:21;;;;;;;12.75;8.80;;;;;;;14.92;61.34;100495.58;2169760;81;27668;-57
2021/06/02 00:26:27;;;;;;;13.05;9.18;;;;;;;14.88;61.23;100490.87;2155159;81;28647;-58
2021/06/02 00:29:35;;;;;;;11.85;8.63;;;;;;;14.85;61.42;100493.27;2165272;81;30957;-58
2021/06/02 00:32:39;;;;;;;15.88;9.90;;;;;;;14.83;61.75;100495.19;2149025;82;32957;-58
2021/06/02 00:35:43;;;;;;;21.70;10.58;;;;;;;14.79;61.46;100497.72;2151036;81;29861;-58
2021/06/02 00:38:45;;;;;;;14.28;9.60;;;;;;;14.76;61.60;100488.94;2114035;84;27652;-57
2021/06/02 00:41:49;;;;;;;18.27;9.25;;;;;;;14.73;61.60;100490.02;2106007;84;29355;-58
2021/06/02 00:44:52;;;;;;;16.43;10.10;;;;;;;14.72;61.61;100486.47;2077776;84;30977;-58
2021/06/02 00:47:55;;;;;;;18.75;9.75;;;;;;;14.72;61.53;100489.62;2102169;84;34204;-58
2021/06/02 00:50:57;;;;;;;14.80;9.50;;;;;;;14.70;61.47;100495.13;2106720;84;30341;-58
2021/06/02 00:54:00;;;;;;;15.15;9.60;;;;;;;14.71;61.58;100493.28;2077026;85;27634;-58
2021/06/02 00:57:20;;;;;;;12.10;9.15;;;;;;;14.67;61.61;100492.59;2090024;84;28619;-58
2021/06/02 01:00:24;;;;;;;15.28;9.95;;;;;;;14.61;61.65;100489.42;2102340;84;31010;-58
2021/06/02 01:03:28;;;;;;;8.40;6.37;;;;;;;14.57;61.61;100499.52;2103827;84;34105;-57
2021/06/02 01:06:34;;;;;;;14.70;10.00;;;;;;;14.54;61.75;100499.73;2124321;83;30395;-58
2021/06/02 01:09:35;;;;;;;11.95;9.35;;;;;;;14.50;61.83;100497.69;2126201;83;27690;-57
2021/06/02 01:12:39;;;;;;;12.13;8.93;;;;;;;14.47;61.97;100499.26;2127117;83;30807;-58
2021/06/02 01:15:41;;;;;;;14.70;9.18;;;;;;;14.47;62.02;100503.77;2106186;84;31011;-58
2021/06/02 01:18:44;;;;;;;13.10;9.63;;;;;;;14.43;61.86;100505.80;2108858;84;33530;-57
2021/06/02 01:21:56;;;;;;;15.83;10.08;;;;;;;14.41;62.04;100502.33;2109288;83;29288;-58
2021/06/02 01:24:58;;;;;;;12.15;9.08;;;;;;;14.39;62.02;100509.17;2108459;83;27619;-58
2021/06/02 01:28:00;;;;;;;14.55;9.08;;;;;;;14.36;62.23;100516.09;2086555;84;29229;-58
2021/06/02 01:31:03;;;;;;;14.83;9.45;;;;;;;14.32;62.09;100515.89;2096623;83;31358;-57
2021/06/02 01:34:19;;;;;;;19.75;10.08;;;;;;;14.33;61.96;100514.05;2081869;84;32962;-57
2021/06/02 01:37:41;;;;;;;14.58;9.63;;;;;;;14.32;62.04;100515.01;2108402;84;29774;-58
2021/06/02 01:41:22;;;;;;;11.53;9.50;;;;;;;14.28;62.19;100518.38;2080754;85;27596;-57
2021/06/02 01:45:09;;;;;;;15.48;9.93;;;;;;;14.25;62.09;100523.50;2100249;83;28781;-58
2021/06/02 01:48:19;;;;;;;15.13;9.83;;;;;;;14.25;62.14;100522.15;2115586;83;32123;-58
2021/06/02 01:52:17;;;;;;;16.20;9.38;;;;;;;14.24;62.14;100523.56;2114212;83;33070;-57
2021/06/02 01:55:41;;;;;;;14.63;10.28;;;;;;;14.22;62.16;100528.22;2097984;84;29859;-58
2021/06/02 01:59:15;;;;;;;14.15;9.63;;;;;;;14.21;62.22;100541.30;2102253;83;27613;-58
2021/06/02 02:03:13;;;;;;;15.35;9.03;;;;;;;14.19;62.14;100540.02;2086872;84;29028;-58
2021/06/02 02:06:34;;;;;;;13.78;8.98;;;;;;;14.21;62.17;100535.91;2101281;84;31412;-59
2021/06/02 02:09:54;;;;;;;13.22;9.85;;;;;;;14.22;62.28;100546.58;2106734;84;34260;-59
2021/06/02 02:13:51;;;;;;;12.25;9.48;;;;;;;14.21;62.17;100550.73;2103002;84;30469;-56
2021/06/02 02:17:11;;;;;;;15.32;9.28;;;;;;;14.22;62.14;100559.20;2113607;84;27587;-58
2021/06/02 02:20:18;;;;;;;17.42;9.73;;;;;;;14.22;62.12;100553.31;2099373;84;29793;-57
2021/06/02 02:23:57;;;;;;;14.53;9.30;;;;;;;14.22;62.34;100554.66;2099565;84;31025;-58
2021/06/02 02:27:07;;;;;;;13.35;8.75;;;;;;;14.20;62.09;100547.16;2099728;84;33367;-57
2021/06/02 02:30:25;;;;;;;20.92;9.48;;;;;;;14.21;62.22;100548.03;2111305;84;30361;-58
2021/06/02 02:33:49;;;;;;;15.32;9.00;;;;;;;14.22;62.07;100547.93;2011343;88;27699;-58
2021/06/02 02:36:56;;;;;;;12.35;8.53;;;;;;;14.24;62.09;100551.86;2003336;87;28627;-58
2021/06/02 02:40:25;;;;;;;14.03;8.80;;;;;;;14.23;62.01;100555.05;2009918;88;31935;-58
2021/06/02 02:43:49;;;;;;;11.43;8.45;;;;;;;14.25;62.10;100552.25;2009480;88;33147;-56
2021/06/02 02:46:56;;;;;;;14.35;8.75;;;;;;;14.24;61.97;100554.09;2009600;88;29760;-57
2021/06/02 02:50:18;;;;;;;16.60;9.48;;;;;;;14.26;61.94;100564.30;2011292;88;27640;-57
2021/06/02 02:53:43;;;;;;;14.55;9.35;;;;;;;14.30;61.93;100560.08;2010227;88;28655;-57
2021/06/02 02:56:59;;;;;;;12.53;9.00;;;;;;;14.31;61.82;100561.33;2011341;88;31430;-57
2021/06/02 03:00:09;;;;;;;;;;;;;;;14.31;61.70;100561.81;1992434;88;33629;-56
2021/06/02 03:03:40;;;;;;;11.75;8.13;;;;;;;14.32;61.74;100569.80;2021174;87;29311;-56
2021/06/02 03:06:48;;;;;;;13.68;9.40;;;;;;;14.33;61.70;100565.26;2023949;87;27781;-57
2021/06/02 03:10:15;;;;;;;12.40;9.00;;;;;;;14.34;61.60;100577.31;2027884;84;28067;-57
2021/06/02 03:13:48;;;;;;;12.88;8.98;;;;;;;14.37;61.65;100576.24;2099951;84;31570;-58
2021/06/02 03:17:10;;;;;;;15.95;9.08;;;;;;;14.38;61.53;100581.56;2079047;84;33325;-57
2021/06/02 03:20:23;;;;;;;18.70;8.63;;;;;;;14.36;61.48;100571.81;2086243;84;29701;-58
2021/06/02 03:23:33;;;;;;;13.68;9.30;;;;;;;14.37;61.30;100586.56;2105730;84;27560;-58
2021/06/02 03:26:40;;;;;;;12.85;8.55;;;;;;;14.39;61.34;100587.34;2103338;84;29807;-57
2021/06/02 03:30:04;;;;;;;15.80;9.78;;;;;;;14.42;61.37;100589.82;2048303;85;31025;-57
2021/06/02 03:33:28;;;;;;;14.65;10.32;;;;;;;14.42;61.32;100591.17;2132888;83;34068;-57
2021/06/02 03:36:58;;;;;;;13.88;9.40;;;;;;;14.43;61.39;100596.09;2083216;83;30418;-57
2021/06/02 03:40:26;;;;;;;11.83;8.93;;;;;;;14.42;61.41;100604.64;2083498;84;28237;-58
2021/06/02 03:43:34;;;;;;;13.65;9.58;;;;;;;14.44;61.36;100604.08;2101227;84;29676;-58
2021/06/02 03:47:02;;;;;;;12.45;9.20;;;;;;;14.50;61.37;100605.52;2080867;84;30995;-57
2021/06/02 03:50:14;;;;;;;13.00;9.33;;;;;;;14.55;61.33;100600.73;2068939;85;33496;-57
2021/06/02 03:53:38;;;;;;;15.68;9.80;;;;;;;14.59;61.28;100592.84;2082912;85;30389;-57
2021/06/02 03:57:13;;;;;;;16.12;9.05;;;;;;;14.65;61.13;100596.98;2052140;86;27605;-57
2021/06/02 04:00:20;;;;;;;26.57;10.63;;;;;;;14.73;61.18;100605.48;2069523;85;28668;-58
2021/06/02 04:03:25;;;;;;;15.90;9.05;;;;;;;14.80;60.94;100611.85;2060931;86;31918;-57
2021/06/02 04:06:55;;;;;;;14.23;8.48;;;;;;;14.86;60.83;100608.28;2061031;86;32924;-58
2021/06/02 04:10:35;;;;;;;15.40;9.20;;;;;;;14.93;60.72;100606.56;2053230;85;29687;-57
2021/06/02 04:13:59;;;;;;;15.75;8.95;;;;;;;14.99;60.54;100607.04;2099534;84;27629;-58
2021/06/02 04:17:02;;;;;;;16.67;9.63;;;;;;;15.07;60.34;100611.06;2105325;84;28993;-57
2021/06/02 04:20:06;;;;;;;13.00;9.13;;;;;;;15.11;60.31;100614.84;2097689;84;32077;-57
2021/06/02 04:23:09;;;;;;;19.85;10.93;;;;;;;15.17;60.15;100612.23;2077516;84;33760;-58
2021/06/02 04:26:11;;;;;;;16.30;10.28;;;;;;;15.22;60.09;100620.91;2077727;84;30072;-58
2021/06/02 04:29:15;;;;;;;14.93;9.58;;;;;;;15.26;60.01;100617.02;2104322;84;27664;-58
2021/06/02 04:32:18;;;;;;;15.88;9.73;;;;;;;15.29;59.95;100625.43;2101490;84;28657;-58
2021/06/02 04:35:20;;;;;;;13.45;9.25;;;;;;;15.33;59.95;100630.52;2103758;84;32076;-58
2021/06/02 04:38:22;;;;;;;15.35;10.48;;;;;;;15.36;59.80;100634.00;2105226;84;33333;-58
2021/06/02 04:41:27;;;;;;;21.75;9.28;;;;;;;15.36;59.86;100634.84;2103714;84;30349;-58
2021/06/02 04:44:31;;;;;;;18.12;11.18;;;;;;;15.33;59.82;100641.32;2080282;84;27657;-58
2021/06/02 04:47:34;;;;;;;14.43;10.65;;;;;;;15.32;59.90;100646.33;2071428;84;28602;-58
2021/06/02 04:50:42;;;;;;;20.72;11.03;;;;;;;15.37;60.04;100643.83;2089451;84;31365;-58
2021/06/02 04:54:21;;;;;;;18.30;10.50;;;;;;;15.38;59.87;100649.61;2102215;84;32981;-58
2021/06/02 04:57:50;;;;;;;19.30;11.45;;;;;;;15.36;59.87;100656.44;2080701;84;29725;-60
2021/06/02 05:01:15;;;;;;;17.80;11.18;;;;;;;15.38;59.79;100655.02;2088778;84;27662;-59
2021/06/02 05:04:39;;;;;;;17.30;11.33;;;;;;;15.41;59.71;100660.19;2103267;84;33509;-58
2021/06/02 05:08:18;;;;;;;18.92;11.15;;;;;;;15.43;59.64;100663.20;2103303;84;31543;-59
2021/06/02 05:11:51;;;;;;;17.52;11.33;;;;;;;15.43;59.49;100667.25;2077987;84;34554;-60
2021/06/02 05:15:16;;;;;;;18.67;11.65;;;;;;;15.41;59.56;100669.17;2095876;84;29739;-58
2021/06/02 05:18:52;;;;;;;16.20;10.85;;;;;;;15.45;59.59;100672.53;2104650;84;27592;-59
2021/06/02 05:22:22;;;;;;;23.70;12.33;;;;;;;15.47;59.42;100678.70;2103491;84;29264;-59
2021/06/02 05:25:44;;;;;;;17.65;11.70;;;;;;;15.46;59.38;100675.16;2101732;84;30270;-59
2021/06/02 05:29:18;;;;;;;20.52;11.18;;;;;;;15.52;59.37;100677.94;2103235;84;33459;-58
2021/06/02 05:32:34;;;;;;;16.02;10.58;;;;;;;15.53;59.24;100680.14;2090210;84;30300;-58
2021/06/02 05:36:17;;;;;;;15.93;11.75;;;;;;;15.58;59.16;100676.67;2089746;84;27627;-58
2021/06/02 05:40:04;;;;;;;19.85;11.28;;;;;;;15.65;59.19;100687.44;2101433;84;29791;-59
2021/06/02 05:43:40;;;;;;;21.65;11.48;;;;;;;15.73;59.04;100682.89;2092282;84;31391;-62
2021/06/02 05:47:36;;;;;;;18.65;12.35;;;;;;;15.87;58.86;100686.97;2096949;84;33331;-61
2021/06/02 05:50:55;;;;;;;16.37;10.45;;;;;;;15.98;58.62;100688.08;2070439;85;30122;-58
2021/06/02 05:54:36;;;;;;;22.55;10.93;;;;;;;16.17;58.42;100697.17;2069115;86;27680;-58
2021/06/02 05:58:06;;;;;;;18.17;11.03;;;;;;;16.32;57.86;100704.75;2097529;84;28792;-58
2021/06/02 06:01:45;;;;;;;19.32;11.70;;;;;;;16.49;56.92;100709.88;2074720;85;30817;-58
2021/06/02 06:05:15;;;;;;;20.45;11.57;;;;;;;16.49;56.92;100709.88;2079885;84;33020;-58
2021/06/02 06:09:05;;;;;;;17.23;10.15;;;;;;;16.67;56.94;100705.53;2096944;84;30205;-59
2021/06/02 06:12:21;;;;;;;20.20;11.57;;;;;;;16.89;56.01;100709.44;2068331;86;27653;-59
2021/06/02 06:15:47;;;;;;;16.85;10.50;;;;;;;17.17;55.20;100713.81;2048477;86;28613;-60
2021/06/02 06:19:15;;;;;;;15.10;9.15;;;;;;;17.54;54.93;100706.27;2049724;86;30800;-59
2021/06/02 06:22:43;;;;;;;13.25;8.45;;;;;;;17.99;52.44;100690.33;2049482;86;33129;-59
2021/06/02 06:25:52;;;;;;;17.57;8.73;;;;;;;18.22;52.67;100718.42;2042585;86;29864;-59
2021/06/02 06:29:08;;;;;;;26.27;11.28;;;;;;;18.22;52.67;100718.42;2049590;86;27782;-59
2021/06/02 06:32:10;;;;;;;23.95;10.08;;;;;;;18.34;51.63;100717.11;2049744;86;28838;-59
2021/06/02 06:35:15;;;;;;;21.15;7.83;;;;;;;18.45;51.03;100714.44;2049487;86;32109;-57
2021/06/02 06:38:51;;;;;;;15.10;8.63;;;;;;;18.45;50.63;100711.72;2049566;86;33390;-57
2021/06/02 06:41:53;;;;;;;14.47;8.45;;;;;;;18.52;50.02;100721.64;2049864;86;29799;-57
2021/06/02 06:44:59;;;;;;;18.90;8.35;;;;;;;18.70;49.87;100724.77;2049685;86;27978;-57
2021/06/02 06:48:21;;;;;;;16.90;7.65;;;;;;;18.89;49.34;100724.70;2049543;86;28616;-58
2021/06/02 06:51:25;;;;;;;16.95;8.35;;;;;;;19.04;49.25;100724.89;2053251;86;31030;-58
2021/06/02 06:54:27;;;;;;;13.03;7.50;;;;;;;19.12;47.80;100725.13;2068577;86;32459;-58
2021/06/02 06:57:29;;;;;;;13.58;7.62;;;;;;;19.15;46.83;100724.05;2068948;86;30080;-59
2021/06/02 07:00:33;;;;;;;13.88;7.80;;;;;;;19.19;47.09;100730.97;2068629;86;27557;-58
2021/06/02 07:03:35;;;;;;;14.45;7.65;;;;;;;19.18;47.17;100732.44;2068440;86;29755;-59
2021/06/02 07:06:38;;;;;;;16.40;7.75;;;;;;;19.06;47.11;100732.91;2068445;86;30855;-59
2021/06/02 07:09:40;;;;;;;19.32;8.15;;;;;;;19.01;47.10;100731.06;2070387;85;33619;-58
2021/06/02 07:12:43;;;;;;;9.43;6.75;;;;;;;19.05;47.01;100732.53;2075510;85;30417;-60
2021/06/02 07:15:46;;;;;;;11.95;7.30;;;;;;;19.17;46.75;100735.66;2076067;85;27599;-57
2021/06/02 07:18:50;;;;;;;14.38;6.87;;;;;;;19.26;46.37;100736.27;2075499;85;29734;-58
2021/06/02 07:21:52;;;;;;;11.18;6.30;;;;;;;19.38;46.22;100736.27;2075518;85;32901;-60
2021/06/02 07:25:01;;;;;;;11.30;7.15;;;;;;;19.54;46.68;100733.20;2075635;85;33299;-59
2021/06/02 07:28:07;;;;;;;15.70;7.45;;;;;;;19.71;45.89;100740.85;2106629;84;30466;-59
2021/06/02 07:31:10;;;;;;;15.65;7.83;;;;;;;19.85;45.62;100735.66;2112509;83;27664;-60
2021/06/02 07:34:13;;;;;;;17.15;8.30;;;;;;;19.88;45.46;100738.64;2112366;83;29982;-58
2021/06/02 07:37:17;;;;;;;11.33;7.28;;;;;;;20.04;45.40;100738.22;2112441;83;31154;-58
2021/06/02 07:40:19;;;;;;;10.38;6.40;;;;;;;20.12;44.92;100746.63;2112713;84;34010;-56
2021/06/02 07:43:21;;;;;;;17.80;6.92;;;;;;;20.14;44.94;100741.92;2112345;83;30471;-58
2021/06/02 07:46:24;;;;;;;13.90;7.15;;;;;;;20.25;44.65;100743.75;2112505;84;27557;-59
2021/06/02 07:49:26;;;;;;;14.63;6.45;;;;;;;20.37;43.95;100744.55;2112434;84;29700;-59
2021/06/02 07:52:35;;;;;;;15.30;6.78;;;;;;;20.52;44.51;100742.92;2018301;85;27718;-58
2021/06/02 07:55:37;;;;;;;7.10;5.85;;;;;;;20.79;43.73;100741.95;1986457;89;34106;-59
2021/06/02 07:58:39;;;;;;;11.25;5.67;;;;;;;21.10;42.95;100735.19;2020271;88;29505;-60
2021/06/02 08:01:41;;;;;;;12.70;5.78;;;;;;;21.52;43.55;100740.19;2020295;88;27712;-60
2021/06/02 08:04:43;;;;;;;11.25;5.17;;;;;;;21.99;43.00;100745.13;2020168;88;29164;-59
2021/06/02 08:07:46;;;;;;;9.43;4.45;;;;;;;22.45;42.06;100743.64;2019007;88;31335;-60
2021/06/02 08:10:48;;;;;;;9.38;4.42;;;;;;;23.00;42.18;100752.27;2030942;87;34098;-60
2021/06/02 08:13:49;;;;;;;8.38;3.80;;;;;;;23.40;41.26;100745.70;2045332;87;30097;-66
2021/06/02 08:16:51;;;;;;;9.93;4.28;;;;;;;23.91;39.56;100742.07;2011119;88;27775;-67
2021/06/02 08:19:53;;;;;;;12.68;4.72;;;;;;;24.40;39.46;100751.38;2045717;87;29419;-69
2021/06/02 08:22:55;;;;;;;8.08;4.45;;;;;;;25.00;39.88;100750.38;2017741;87;32345;-67
2021/06/02 08:25:57;;;;;;;8.08;3.92;;;;;;;25.50;38.52;100747.98;2097162;84;33556;-68
2021/06/02 08:28:59;;;;;;;6.53;4.08;;;;;;;25.86;35.34;100748.66;2097218;84;30040;-68
2021/06/02 08:32:00;;;;;;;11.73;4.22;;;;;;;26.18;35.59;100750.34;2097207;84;27594;-68
2021/06/02 08:35:05;;;;;;;6.75;3.20;;;;;;;26.48;36.32;100746.62;2097213;84;28746;-68
2021/06/02 08:38:07;;;;;;;9.33;3.87;;;;;;;26.74;35.08;100746.47;2064637;86;31736;-72
2021/06/02 08:41:08;;;;;;;15.85;4.12;;;;;;;26.75;33.01;100748.69;2097195;84;32946;-68
2021/06/02 08:44:10;;;;;;;8.10;3.47;;;;;;;26.62;33.86;100754.19;2097045;84;30035;-67
2021/06/02 08:47:12;;;;;;;8.38;3.62;;;;;;;26.68;33.23;100745.27;2063987;86;27635;-67
2021/06/02 08:50:17;;;;;;;8.25;3.60;;;;;;;26.75;32.50;100750.06;2098207;84;29940;-69
2021/06/02 08:53:20;;;;;;;12.40;3.87;;;;;;;26.81;31.95;100747.51;2111281;84;31020;-67
2021/06/02 08:56:23;;;;;;;6.15;3.90;;;;;;;27.21;32.15;100753.67;2072032;85;33756;-67
2021/06/02 08:59:24;;;;;;;8.78;3.50;;;;;;;27.43;31.68;100748.81;2072105;85;29327;-67
2021/06/02 09:02:26;;;;;;;6.72;3.00;;;;;;;27.53;30.90;100750.53;2072123;85;27735;-65
2021/06/02 09:05:30;;;;;;;7.50;3.10;;;;;;;27.40;31.20;100745.53;2072045;85;29509;-69
2021/06/02 09:08:33;;;;;;;4.90;2.42;;;;;;;27.44;31.18;100746.41;2096052;84;30999;-66
2021/06/02 09:11:47;;;;;;;9.48;3.22;;;;;;;27.41;30.33;100745.37;2072209;85;33037;-64
2021/06/02 09:14:51;;;;;;;4.15;2.27;;;;;;;27.55;30.51;100752.05;2096037;84;30009;-67
2021/06/02 09:18:00;;;;;;;6.50;2.72;;;;;;;27.64;28.44;100747.38;2025944;85;27601;-68
2021/06/02 09:21:04;;;;;;;5.95;2.50;;;;;;;27.28;28.77;100758.83;2072156;85;28615;-67
2021/06/02 09:24:06;;;;;;;5.05;2.98;;;;;;;26.98;28.20;100759.88;2049062;85;32192;-67
2021/06/02 09:27:10;;;;;;;7.22;3.10;;;;;;;26.86;28.70;100758.02;2072140;85;32937;-68
2021/06/02 09:30:17;;;;;;;12.28;3.50;;;;;;;26.79;29.03;100757.84;2095239;84;36891;-67
2021/06/02 09:33:19;;;;;;;7.62;6.17;;;;;;;26.52;28.41;100757.62;2072207;85;27622;-66
2021/06/02 09:36:31;;;;;;;4.90;3.30;;;;;;;26.37;28.85;100757.41;2072012;85;29437;-68
2021/06/02 09:39:43;;;;;;;3.70;2.98;;;;;;;26.36;28.83;100754.32;2072062;85;30973;-65
2021/06/02 09:42:47;;;;;;;13.53;3.60;;;;;;;26.34;28.95;100755.00;2060013;85;33271;-65
2021/06/02 09:45:54;;;;;;;2.95;2.20;;;;;;;26.44;29.55;100753.47;2043302;85;29096;-66
2021/06/02 09:49:01;;;;;;;6.37;3.15;;;;;;;26.53;28.93;100757.97;2041317;87;27694;-66
2021/06/02 09:52:03;;;;;;;6.35;2.85;;;;;;;26.54;28.26;100759.16;2043256;85;28615;-64
2021/06/02 09:55:15;;;;;;;6.72;3.12;;;;;;;26.42;28.87;100759.15;2042472;87;31174;-63
2021/06/02 09:58:18;;;;;;;6.15;2.83;;;;;;;26.36;28.55;100763.94;2043419;87;34346;-64
2021/06/02 10:01:20;;;;;;;7.12;2.20;;;;;;;26.14;28.40;100762.19;2043279;87;30117;-66
2021/06/02 10:04:35;;;;;;;3.35;2.58;;;;;;;25.91;28.66;100751.77;2043438;85;27675;-63
2021/06/02 10:07:46;;;;;;;5.28;2.75;;;;;;;25.82;27.91;100757.40;2006045;88;28596;-63
2021/06/02 10:10:48;;;;;;;2.60;2.08;;;;;;;25.52;28.02;100762.41;2005876;88;31365;-65
2021/06/02 10:13:51;;;;;;;2.83;2.52;;;;;;;25.28;26.93;100746.11;2005905;88;33757;-65
2021/06/02 10:16:53;;;;;;;2.80;2.58;;;;;;;25.09;27.62;100756.78;2006017;88;29504;-63
2021/06/02 10:19:56;;;;;;;2.85;2.55;;;;;;;24.84;27.09;100747.87;2005948;88;27706;-63
2021/06/02 10:23:00;;;;;;;6.05;2.83;;;;;;;24.65;27.25;100765.32;2006003;88;28680;-64
2021/06/02 10:26:04;;;;;;;4.27;2.77;;;;;;;24.54;27.96;100756.83;2006058;88;30987;-65
2021/06/02 10:29:07;;;;;;;4.15;2.30;;;;;;;24.52;27.90;100768.44;2006108;88;33769;-66
2021/06/02 10:32:10;;;;;;;3.98;2.47;;;;;;;24.42;27.44;100761.67;2006102;88;29395;-64
2021/06/02 10:35:13;;;;;;;2.45;2.00;;;;;;;24.22;27.63;100762.33;2005930;88;27707;-65
2021/06/02 10:38:17;;;;;;;2.45;2.22;;;;;;;24.14;27.47;100760.00;2005865;88;29457;-64
2021/06/02 10:41:33;;;;;;;4.28;2.40;;;;;;;24.04;27.43;100780.06;2006100;88;30999;-64
2021/06/02 10:44:38;;;;;;;10.30;2.40;;;;;;;23.90;27.16;100767.74;2016782;87;34153;-64
2021/06/02 10:47:40;;;;;;;5.33;2.60;;;;;;;23.70;27.14;100766.95;2043719;87;29322;-63
2021/06/02 10:50:45;;;;;;;2.37;2.17;;;;;;;23.62;27.51;100764.97;2043363;85;27727;-63
2021/06/02 10:53:47;;;;;;;3.85;1.82;;;;;;;23.55;26.95;100772.55;2043176;87;28662;-63
2021/06/02 10:57:04;;;;;;;5.90;2.30;;;;;;;23.45;27.83;100776.20;2043478;87;32248;-63
2021/06/02 11:00:13;;;;;;;2.95;2.40;;;;;;;23.42;27.57;100781.08;2043153;87;33315;-64
2021/06/02 11:03:28;;;;;;;2.77;2.10;;;;;;;23.39;27.76;100767.73;2043473;87;29482;-65
2021/06/02 11:06:36;;;;;;;2.47;2.02;;;;;;;23.39;27.91;100760.90;2043691;87;27641;-64
2021/06/02 11:10:00;;;;;;;2.83;2.05;;;;;;;23.33;28.21;100772.77;2043236;87;28669;-64
2021/06/02 11:13:05;;;;;;;2.25;1.80;;;;;;;23.34;28.24;100773.63;2039815;87;31729;-62
2021/06/02 11:16:07;;;;;;;;;;;;;;;23.31;28.15;100772.58;2045468;85;32956;-63
2021/06/02 11:19:55;;;;;;;4.58;2.40;;;;;;;23.22;28.01;100764.76;2231188;79;27722;-64
2021/06/02 11:35:09;;;;;;;7.40;3.20;;;;;;;23.27;28.33;100746.02;2181814;80;27669;-64
2021/06/02 11:38:11;;;;;;;7.65;2.12;;;;;;;23.27;28.25;100760.20;2173131;81;27679;-64
2021/06/02 11:41:15;;;;;;;6.22;2.98;;;;;;;23.24;28.51;100759.13;2144306;83;29221;-66
2021/06/02 11:44:17;;;;;;;3.80;2.67;;;;;;;23.25;28.43;100764.95;2125609;83;31946;-63
2021/06/02 11:47:19;;;;;;;3.42;2.00;;;;;;;23.21;28.69;100754.83;2144282;83;33000;-63
2021/06/02 11:50:24;;;;;;;5.83;2.15;;;;;;;23.19;28.81;100761.76;2144380;83;29899;-63
2021/06/02 11:53:38;;;;;;;;;;;;;;;23.17;29.07;100752.84;2147255;83;27694;-64
2021/06/02 11:56:40;;;;;;;4.78;2.60;;;;;;;23.19;29.06;100763.13;2143615;82;29071;-64
2021/06/02 11:59:43;;;;;;;3.58;3.25;;;;;;;23.09;29.10;100774.59;2144253;82;31904;-67
2021/06/02 12:02:47;;;;;;;3.08;2.10;;;;;;;23.01;28.71;100771.23;2144053;83;35130;-65
2021/06/02 12:05:49;;;;;;;5.37;2.77;;;;;;;22.92;29.15;100758.42;2143792;82;29352;-64
2021/06/02 12:08:55;;;;;;;6.90;2.92;;;;;;;22.87;29.48;100766.22;2143928;82;27769;-64
2021/06/02 12:11:57;;;;;;;2.50;2.12;;;;;;;22.86;29.67;100768.06;2144751;83;29861;-63
2021/06/02 12:14:59;;;;;;;3.55;2.85;;;;;;;22.86;29.69;100768.59;2144327;82;32398;-79
2021/06/02 12:18:01;;;;;;;6.65;3.27;;;;;;;22.84;29.21;100768.72;2146181;82;32974;-64
2021/06/02 12:21:22;;;;;;;6.45;2.45;;;;;;;22.83;29.70;100775.70;2151106;82;29939;-65
2021/06/02 12:24:26;;;;;;;4.78;2.58;;;;;;;22.70;28.79;100770.03;2151842;82;27717;-67
2021/06/02 12:27:28;;;;;;;4.10;2.60;;;;;;;22.60;29.51;100768.66;2151633;82;29762;-64
2021/06/02 12:30:37;;;;;;;7.92;4.28;;;;;;;22.60;29.51;100780.95;2150854;82;31036;-66
2021/06/02 12:33:38;;;;;;;5.92;2.90;;;;;;;22.56;29.31;100767.73;2150613;82;33118;-63
2021/06/02 12:36:51;;;;;;;7.72;2.42;;;;;;;22.55;30.09;100766.86;2136391;82;28727;-63
2021/06/02 12:39:59;;;;;;;3.92;2.60;;;;;;;22.58;30.27;100770.67;2150833;82;27661;-64
2021/06/02 12:43:01;;;;;;;10.03;2.98;;;;;;;22.57;29.73;100777.14;2150712;81;28669;-66
2021/06/02 12:46:14;;;;;;;5.65;3.20;;;;;;;22.57;29.69;100783.12;2150405;82;32256;-64
2021/06/02 12:49:16;;;;;;;5.05;3.30;;;;;;;22.56;30.05;100771.31;2150147;82;32843;-62
2021/06/02 12:52:21;;;;;;;5.55;2.50;;;;;;;22.60;30.16;100771.40;2185168;81;29890;-62
2021/06/02 12:55:23;;;;;;;6.22;2.87;;;;;;;22.59;30.05;100767.42;2187080;81;27670;-63
2021/06/02 12:58:30;;;;;;;7.45;2.77;;;;;;;22.64;30.35;100773.33;2188498;81;28708;-62
2021/06/02 13:01:31;;;;;;;4.30;2.87;;;;;;;22.66;29.67;100784.98;2188122;81;31101;-62
2021/06/02 13:04:34;;;;;;;;;;;;;;;22.60;29.57;100775.50;2190822;81;33819;-62
2021/06/02 13:07:37;;;;;;;3.47;2.42;;;;;;;22.56;29.94;100769.11;2188421;81;29107;-62
2021/06/02 13:10:45;;;;;;;5.10;2.62;;;;;;;22.52;30.54;100771.23;2188561;81;27523;-61
2021/06/02 13:13:50;;;;;;;6.15;2.92;;;;;;;22.53;30.68;100781.16;2188399;81;29072;-62
2021/06/02 13:16:54;;;;;;;10.28;2.77;;;;;;;22.55;30.40;100775.05;2188457;81;32189;-62
2021/06/02 13:19:56;;;;;;;3.20;2.77;;;;;;;22.56;30.70;100774.56;2171090;81;34445;-62
2021/06/02 13:23:19;;;;;;;5.90;3.25;;;;;;;22.58;30.89;100778.02;2166578;82;30835;-62
2021/06/02 13:26:26;;;;;;;5.25;3.22;;;;;;;22.62;30.50;100772.61;2160545;81;28017;-61
2021/06/02 13:29:29;;;;;;;5.72;3.30;;;;;;;22.60;30.57;100782.32;2143778;82;29819;-61
2021/06/02 13:32:30;;;;;;;5.97;2.52;;;;;;;22.58;30.77;100779.38;2143414;83;32055;-62
2021/06/02 13:35:33;;;;;;;4.40;2.12;;;;;;;22.54;30.48;100791.59;2143650;83;33423;-62
2021/06/02 13:38:36;;;;;;;3.92;2.58;;;;;;;22.51;30.18;100776.33;2143682;82;29579;-61
2021/06/02 13:41:38;;;;;;;13.75;3.30;;;;;;;22.49;30.24;100781.59;2144026;82;27706;-61
2021/06/02 13:44:40;;;;;;;5.00;2.90;;;;;;;22.50;30.42;100785.56;2143886;82;28724;-61
2021/06/02 13:47:42;;;;;;;4.58;2.45;;;;;;;22.49;30.73;100779.73;2144071;83;31834;-61
2021/06/02 13:50:45;;;;;;;6.25;4.28;;;;;;;22.52;30.53;100779.95;2143531;82;34273;-61
2021/06/02 13:54:19;;;;;;;9.28;2.77;;;;;;;22.52;30.55;100788.98;2143580;82;29712;-61
2021/06/02 13:57:25;;;;;;;4.90;2.87;;;;;;;22.48;30.41;100793.03;2143663;83;27780;-61
2021/06/02 14:00:32;;;;;;;4.30;2.92;;;;;;;22.46;30.20;100798.61;2143940;83;29355;-62
2021/06/02 14:03:34;;;;;;;5.78;2.50;;;;;;;22.42;30.59;100786.23;2143306;82;31862;-62
2021/06/02 14:06:37;;;;;;;3.08;2.40;;;;;;;22.40;30.47;100786.88;2143542;83;34380;-62
2021/06/02 14:09:41;;;;;;;2.80;2.52;;;;;;;22.40;29.91;100790.97;2143580;83;30028;-61
2021/06/02 14:12:43;;;;;;;7.53;2.33;;;;;;;22.33;30.09;100789.80;2144315;82;27817;-69
2021/06/02 14:15:44;;;;;;;6.30;2.77;;;;;;;22.30;30.26;100787.34;2143978;82;29087;-66
2021/06/02 14:18:55;;;;;;;6.42;2.42;;;;;;;22.33;30.35;100797.14;2143637;82;31190;-63
2021/06/02 14:21:57;;;;;;;3.10;2.55;;;;;;;22.34;30.50;100791.53;2143543;82;33851;-68
2021/06/02 14:24:59;;;;;;;3.80;2.52;;;;;;;22.35;29.95;100778.23;2143575;83;29802;-70
2021/06/02 14:28:01;;;;;;;3.33;2.75;;;;;;;22.35;29.97;100787.80;2143985;82;28232;-70
2021/06/02 14:31:03;;;;;;;7.35;2.72;;;;;;;22.37;29.96;100783.55;2143561;82;29791;-69
2021/06/02 14:34:06;;;;;;;3.85;3.10;;;;;;;22.34;30.19;100787.43;2143870;83;31076;-67
2021/06/02 14:37:08;;;;;;;3.80;2.20;;;;;;;22.32;29.52;100785.34;2143563;83;33839;-68
2021/06/02 14:40:11;;;;;;;2.72;2.25;;;;;;;22.27;30.21;100776.70;2143531;83;29995;-70
2021/06/02 14:43:13;;;;;;;4.55;2.33;;;;;;;22.28;30.02;100787.50;2144217;82;28203;-66
2021/06/02 14:46:15;;;;;;;4.80;2.83;;;;;;;22.30;30.21;100794.17;2143873;83;28630;-69
2021/06/02 14:49:17;;;;;;;4.28;2.05;;;;;;;22.30;29.91;100793.69;2144015;82;31076;-64
2021/06/02 14:52:21;;;;;;;6.25;2.62;;;;;;;22.29;30.13;100785.13;2143709;82;34197;-70